sensor_id;sensor_type;location;lat;lon;timestamp;temperature;humidity
12481;DHT22;6305;48.398;11.762;2022-08-19T00:00:50;18.50;99.90
12481;DHT22;6305;48.398;11.762;2022-08-19T00:03:17;18.50;99.90
12481;DHT22;6305;48.398;11.762;2022-08-19T00:05:43;18.50;99.90
12481;DHT22;6305;48.398;11.762;2022-08-19T00:08:11;18.60;99.90
12481;DHT22;6305;48.398;11.762;2022-08-19T00:10:37;18.60;99.90
12481;DHT22;6305;48.398;11.762;2022-08-19T00:13:04;18.60;99.90
12481;DHT22;6305;48.398;11.762;2022-08-19T00:15:32;18.60;99.90
12481;DHT22;6305;48.398;11.762;2022-08-19T00:17:59;18.60;99.90
12481;DHT22;6305;48.398;11.762;2022-08-19T00:20:26;18.60;99.90
12481;DHT22;6305;48.398;11.762;2022-08-19T00:22:52;18.60;99.90
12481;DHT22;6305;48.398;11.762;2022-08-19T00:25:19;18.60;99.90
12481;DHT22;6305;48.398;11.762;2022-08-19T00:27:46;18.70;99.90
12481;DHT22;6305;48.398;11.762;2022-08-19T00:30:14;18.70;99.90
12481;DHT22;6305;48.398;11.762;2022-08-19T00:32:42;18.60;99.90
12481;DHT22;6305;48.398;11.762;2022-08-19T00:35:09;18.60;99.90
12481;DHT22;6305;48.398;11.762;2022-08-19T00:37:37;18.70;99.90
12481;DHT22;6305;48.398;11.762;2022-08-19T00:40:11;18.70;99.90
12481;DHT22;6305;48.398;11.762;2022-08-19T00:42:38;18.70;99.90
12481;DHT22;6305;48.398;11.762;2022-08-19T00:45:10;18.70;99.90
12481;DHT22;6305;48.398;11.762;2022-08-19T00:47:52;18.70;99.90
12481;DHT22;6305;48.398;11.762;2022-08-19T00:50:21;18.70;99.90
12481;DHT22;6305;48.398;11.762;2022-08-19T00:52:50;18.70;99.90
12481;DHT22;6305;48.398;11.762;2022-08-19T00:55:22;18.70;99.90
12481;DHT22;6305;48.398;11.762;2022-08-19T00:57:53;18.70;99.90
12481;DHT22;6305;48.398;11.762;2022-08-19T01:00:23;18.70;99.90
12481;DHT22;6305;48.398;11.762;2022-08-19T01:02:52;18.70;99.90
12481;DHT22;6305;48.398;11.762;2022-08-19T01:05:22;18.70;99.90
12481;DHT22;6305;48.398;11.762;2022-08-19T01:07:49;18.70;99.90
12481;DHT22;6305;48.398;11.762;2022-08-19T01:10:19;18.70;99.90
12481;DHT22;6305;48.398;11.762;2022-08-19T01:12:48;18.80;99.90
12481;DHT22;6305;48.398;11.762;2022-08-19T01:15:17;18.80;99.90
12481;DHT22;6305;48.398;11.762;2022-08-19T01:17:45;18.70;99.90
12481;DHT22;6305;48.398;11.762;2022-08-19T01:20:16;18.70;99.90
12481;DHT22;6305;48.398;11.762;2022-08-19T01:22:47;18.70;99.90
12481;DHT22;6305;48.398;11.762;2022-08-19T01:25:16;18.80;99.90
12481;DHT22;6305;48.398;11.762;2022-08-19T01:27:46;18.70;99.90
12481;DHT22;6305;48.398;11.762;2022-08-19T01:30:16;18.70;99.90
12481;DHT22;6305;48.398;11.762;2022-08-19T01:32:43;18.70;99.90
12481;DHT22;6305;48.398;11.762;2022-08-19T01:35:12;18.80;99.90
12481;DHT22;6305;48.398;11.762;2022-08-19T01:37:43;18.70;99.90
12481;DHT22;6305;48.398;11.762;2022-08-19T01:40:12;18.70;99.90
12481;DHT22;6305;48.398;11.762;2022-08-19T01:42:39;18.70;99.90
12481;DHT22;6305;48.398;11.762;2022-08-19T01:45:07;18.60;99.90
12481;DHT22;6305;48.398;11.762;2022-08-19T01:47:35;18.70;99.90
12481;DHT22;6305;48.398;11.762;2022-08-19T01:50:03;18.70;99.90
12481;DHT22;6305;48.398;11.762;2022-08-19T01:52:31;18.70;99.90
12481;DHT22;6305;48.398;11.762;2022-08-19T01:54:58;18.70;99.90
12481;DHT22;6305;48.398;11.762;2022-08-19T01:57:26;18.70;99.90
12481;DHT22;6305;48.398;11.762;2022-08-19T01:59:53;18.70;99.90
12481;DHT22;6305;48.398;11.762;2022-08-19T02:02:20;18.70;99.90
12481;DHT22;6305;48.398;11.762;2022-08-19T02:04:46;18.70;99.90
12481;DHT22;6305;48.398;11.762;2022-08-19T02:07:15;18.70;99.90
12481;DHT22;6305;48.398;11.762;2022-08-19T02:09:45;18.70;99.90
12481;DHT22;6305;48.398;11.762;2022-08-19T02:12:12;18.70;99.90
12481;DHT22;6305;48.398;11.762;2022-08-19T02:14:40;18.70;99.90
12481;DHT22;6305;48.398;11.762;2022-08-19T02:17:07;18.70;99.90
12481;DHT22;6305;48.398;11.762;2022-08-19T02:19:34;18.70;99.90
12481;DHT22;6305;48.398;11.762;2022-08-19T02:22:00;18.70;99.90
12481;DHT22;6305;48.398;11.762;2022-08-19T02:24:27;18.70;99.90
12481;DHT22;6305;48.398;11.762;2022-08-19T02:26:54;18.70;99.90
12481;DHT22;6305;48.398;11.762;2022-08-19T02:29:21;18.70;99.90
12481;DHT22;6305;48.398;11.762;2022-08-19T02:31:49;18.70;99.90
12481;DHT22;6305;48.398;11.762;2022-08-19T02:34:17;18.80;99.90
12481;DHT22;6305;48.398;11.762;2022-08-19T02:36:44;18.70;99.90
12481;DHT22;6305;48.398;11.762;2022-08-19T02:39:10;18.70;99.90
12481;DHT22;6305;48.398;11.762;2022-08-19T02:41:36;18.70;99.90
12481;DHT22;6305;48.398;11.762;2022-08-19T02:44:03;18.70;99.90
12481;DHT22;6305;48.398;11.762;2022-08-19T02:46:32;18.70;99.90
12481;DHT22;6305;48.398;11.762;2022-08-19T02:49:02;18.70;99.90
12481;DHT22;6305;48.398;11.762;2022-08-19T02:51:31;18.70;99.90
12481;DHT22;6305;48.398;11.762;2022-08-19T02:53:58;18.70;99.90
12481;DHT22;6305;48.398;11.762;2022-08-19T02:56:26;18.60;99.90
12481;DHT22;6305;48.398;11.762;2022-08-19T02:58:53;18.60;99.90
12481;DHT22;6305;48.398;11.762;2022-08-19T03:01:22;18.60;99.90
12481;DHT22;6305;48.398;11.762;2022-08-19T03:03:50;18.60;99.90
12481;DHT22;6305;48.398;11.762;2022-08-19T03:06:19;18.60;99.90
12481;DHT22;6305;48.398;11.762;2022-08-19T03:08:47;18.60;99.90
12481;DHT22;6305;48.398;11.762;2022-08-19T03:11:17;18.60;99.90
12481;DHT22;6305;48.398;11.762;2022-08-19T03:13:44;18.60;99.90
12481;DHT22;6305;48.398;11.762;2022-08-19T03:16:12;18.60;99.90
12481;DHT22;6305;48.398;11.762;2022-08-19T03:18:39;18.60;99.90
12481;DHT22;6305;48.398;11.762;2022-08-19T03:21:06;18.60;99.90
12481;DHT22;6305;48.398;11.762;2022-08-19T03:23:34;18.60;99.90
12481;DHT22;6305;48.398;11.762;2022-08-19T03:26:04;18.60;99.90
12481;DHT22;6305;48.398;11.762;2022-08-19T03:28:31;18.60;99.90
12481;DHT22;6305;48.398;11.762;2022-08-19T03:31:01;18.60;99.90
12481;DHT22;6305;48.398;11.762;2022-08-19T03:33:29;18.60;99.90
12481;DHT22;6305;48.398;11.762;2022-08-19T03:36:01;18.60;99.90
12481;DHT22;6305;48.398;11.762;2022-08-19T03:38:28;18.60;99.90
12481;DHT22;6305;48.398;11.762;2022-08-19T03:40:56;18.60;99.90
12481;DHT22;6305;48.398;11.762;2022-08-19T03:43:23;18.60;99.90
12481;DHT22;6305;48.398;11.762;2022-08-19T03:46:00;18.60;99.90
12481;DHT22;6305;48.398;11.762;2022-08-19T03:48:29;18.60;99.90
12481;DHT22;6305;48.398;11.762;2022-08-19T03:50:57;18.60;99.90
12481;DHT22;6305;48.398;11.762;2022-08-19T03:53:24;18.60;99.90
12481;DHT22;6305;48.398;11.762;2022-08-19T03:55:52;18.60;99.90
12481;DHT22;6305;48.398;11.762;2022-08-19T03:58:21;18.60;99.90
12481;DHT22;6305;48.398;11.762;2022-08-19T04:00:48;18.60;99.90
12481;DHT22;6305;48.398;11.762;2022-08-19T04:03:16;18.60;99.90
12481;DHT22;6305;48.398;11.762;2022-08-19T04:05:45;18.60;99.90
12481;DHT22;6305;48.398;11.762;2022-08-19T04:08:12;18.60;99.90
12481;DHT22;6305;48.398;11.762;2022-08-19T04:10:44;18.70;99.90
12481;DHT22;6305;48.398;11.762;2022-08-19T04:13:11;18.60;99.90
12481;DHT22;6305;48.398;11.762;2022-08-19T04:15:41;18.60;99.90
12481;DHT22;6305;48.398;11.762;2022-08-19T04:18:08;18.60;99.90
12481;DHT22;6305;48.398;11.762;2022-08-19T04:20:40;18.60;99.90
12481;DHT22;6305;48.398;11.762;2022-08-19T04:23:07;18.60;99.90
12481;DHT22;6305;48.398;11.762;2022-08-19T04:25:38;18.70;99.90
12481;DHT22;6305;48.398;11.762;2022-08-19T04:28:05;18.70;99.90
12481;DHT22;6305;48.398;11.762;2022-08-19T04:30:39;18.70;99.90
12481;DHT22;6305;48.398;11.762;2022-08-19T04:33:06;18.70;99.90
12481;DHT22;6305;48.398;11.762;2022-08-19T04:35:38;18.70;99.90
12481;DHT22;6305;48.398;11.762;2022-08-19T04:38:06;18.70;99.90
12481;DHT22;6305;48.398;11.762;2022-08-19T04:40:33;18.70;99.90
12481;DHT22;6305;48.398;11.762;2022-08-19T04:43:17;18.80;99.90
12481;DHT22;6305;48.398;11.762;2022-08-19T04:45:45;18.80;99.90
12481;DHT22;6305;48.398;11.762;2022-08-19T04:48:12;18.80;99.90
12481;DHT22;6305;48.398;11.762;2022-08-19T04:50:41;18.80;99.90
12481;DHT22;6305;48.398;11.762;2022-08-19T04:53:09;18.80;99.90
12481;DHT22;6305;48.398;11.762;2022-08-19T04:55:39;18.80;99.90
12481;DHT22;6305;48.398;11.762;2022-08-19T04:58:06;18.90;99.90
12481;DHT22;6305;48.398;11.762;2022-08-19T05:00:33;18.90;99.90
12481;DHT22;6305;48.398;11.762;2022-08-19T05:03:01;18.90;99.90
12481;DHT22;6305;48.398;11.762;2022-08-19T05:05:28;18.90;99.90
12481;DHT22;6305;48.398;11.762;2022-08-19T05:07:57;19.00;99.90
12481;DHT22;6305;48.398;11.762;2022-08-19T05:10:24;19.00;99.90
12481;DHT22;6305;48.398;11.762;2022-08-19T05:12:50;19.10;99.90
12481;DHT22;6305;48.398;11.762;2022-08-19T05:15:17;19.20;99.90
12481;DHT22;6305;48.398;11.762;2022-08-19T05:17:44;19.20;99.90
12481;DHT22;6305;48.398;11.762;2022-08-19T05:20:32;19.30;99.90
12481;DHT22;6305;48.398;11.762;2022-08-19T05:23:16;19.40;99.90
12481;DHT22;6305;48.398;11.762;2022-08-19T05:25:43;19.40;99.90
12481;DHT22;6305;48.398;11.762;2022-08-19T05:28:10;19.40;99.90
12481;DHT22;6305;48.398;11.762;2022-08-19T05:30:37;19.50;99.90
12481;DHT22;6305;48.398;11.762;2022-08-19T05:33:07;19.50;99.90
12481;DHT22;6305;48.398;11.762;2022-08-19T05:35:38;19.60;99.90
12481;DHT22;6305;48.398;11.762;2022-08-19T05:38:07;19.60;99.90
12481;DHT22;6305;48.398;11.762;2022-08-19T05:40:35;19.60;99.90
12481;DHT22;6305;48.398;11.762;2022-08-19T05:43:03;19.70;99.90
12481;DHT22;6305;48.398;11.762;2022-08-19T05:45:30;19.70;99.90
12481;DHT22;6305;48.398;11.762;2022-08-19T05:47:57;19.70;99.90
12481;DHT22;6305;48.398;11.762;2022-08-19T05:50:24;19.70;99.90
12481;DHT22;6305;48.398;11.762;2022-08-19T05:52:53;19.60;99.90
12481;DHT22;6305;48.398;11.762;2022-08-19T05:55:19;19.60;99.90
12481;DHT22;6305;48.398;11.762;2022-08-19T05:57:48;19.50;99.90
12481;DHT22;6305;48.398;11.762;2022-08-19T06:00:15;19.50;99.90
12481;DHT22;6305;48.398;11.762;2022-08-19T06:02:42;19.50;99.90
12481;DHT22;6305;48.398;11.762;2022-08-19T06:05:09;19.40;99.90
12481;DHT22;6305;48.398;11.762;2022-08-19T06:07:37;19.40;99.90
12481;DHT22;6305;48.398;11.762;2022-08-19T06:10:08;19.30;99.90
12481;DHT22;6305;48.398;11.762;2022-08-19T06:12:36;19.20;99.90
12481;DHT22;6305;48.398;11.762;2022-08-19T06:15:05;19.20;99.90
12481;DHT22;6305;48.398;11.762;2022-08-19T06:17:34;19.20;99.90
12481;DHT22;6305;48.398;11.762;2022-08-19T06:20:01;19.20;99.90
12481;DHT22;6305;48.398;11.762;2022-08-19T06:22:28;19.20;99.90
12481;DHT22;6305;48.398;11.762;2022-08-19T06:24:55;19.20;99.90
12481;DHT22;6305;48.398;11.762;2022-08-19T06:27:23;19.10;99.90
12481;DHT22;6305;48.398;11.762;2022-08-19T06:29:50;19.10;99.90
12481;DHT22;6305;48.398;11.762;2022-08-19T06:32:18;19.10;99.90
12481;DHT22;6305;48.398;11.762;2022-08-19T06:34:45;19.10;99.90
12481;DHT22;6305;48.398;11.762;2022-08-19T06:37:12;19.10;99.90
12481;DHT22;6305;48.398;11.762;2022-08-19T06:39:41;19.10;99.90
12481;DHT22;6305;48.398;11.762;2022-08-19T06:42:09;19.10;99.90
12481;DHT22;6305;48.398;11.762;2022-08-19T06:44:41;19.10;99.90
12481;DHT22;6305;48.398;11.762;2022-08-19T06:47:10;19.10;99.90
12481;DHT22;6305;48.398;11.762;2022-08-19T06:49:37;19.10;99.90
12481;DHT22;6305;48.398;11.762;2022-08-19T06:52:05;19.20;99.90
12481;DHT22;6305;48.398;11.762;2022-08-19T06:54:32;19.10;99.90
12481;DHT22;6305;48.398;11.762;2022-08-19T06:56:59;19.00;99.90
12481;DHT22;6305;48.398;11.762;2022-08-19T06:59:28;19.00;99.90
12481;DHT22;6305;48.398;11.762;2022-08-19T07:02:01;18.90;99.90
12481;DHT22;6305;48.398;11.762;2022-08-19T07:04:30;18.80;99.90
12481;DHT22;6305;48.398;11.762;2022-08-19T07:06:59;18.80;99.90
12481;DHT22;6305;48.398;11.762;2022-08-19T07:09:27;18.80;99.90
12481;DHT22;6305;48.398;11.762;2022-08-19T07:11:55;18.80;99.90
12481;DHT22;6305;48.398;11.762;2022-08-19T07:14:24;18.80;99.90
12481;DHT22;6305;48.398;11.762;2022-08-19T07:16:54;18.90;99.90
12481;DHT22;6305;48.398;11.762;2022-08-19T07:19:24;18.90;99.90
12481;DHT22;6305;48.398;11.762;2022-08-19T07:21:53;19.00;99.90
12481;DHT22;6305;48.398;11.762;2022-08-19T07:24:22;19.00;99.90
12481;DHT22;6305;48.398;11.762;2022-08-19T07:26:50;19.20;99.90
12481;DHT22;6305;48.398;11.762;2022-08-19T07:29:19;19.30;99.90
12481;DHT22;6305;48.398;11.762;2022-08-19T07:31:48;19.40;99.90
12481;DHT22;6305;48.398;11.762;2022-08-19T07:34:16;19.60;99.90
12481;DHT22;6305;48.398;11.762;2022-08-19T07:36:44;19.70;99.90
12481;DHT22;6305;48.398;11.762;2022-08-19T07:39:15;19.70;99.90
12481;DHT22;6305;48.398;11.762;2022-08-19T07:41:42;19.90;99.90
12481;DHT22;6305;48.398;11.762;2022-08-19T07:44:09;20.20;99.90
12481;DHT22;6305;48.398;11.762;2022-08-19T07:46:39;20.40;99.90
12481;DHT22;6305;48.398;11.762;2022-08-19T07:49:07;20.70;99.90
12481;DHT22;6305;48.398;11.762;2022-08-19T07:51:34;20.90;99.90
12481;DHT22;6305;48.398;11.762;2022-08-19T07:54:03;21.00;99.90
12481;DHT22;6305;48.398;11.762;2022-08-19T07:56:30;20.90;99.90
12481;DHT22;6305;48.398;11.762;2022-08-19T07:58:57;20.50;99.90
12481;DHT22;6305;48.398;11.762;2022-08-19T08:01:25;20.20;99.90
12481;DHT22;6305;48.398;11.762;2022-08-19T08:03:54;20.10;99.90
12481;DHT22;6305;48.398;11.762;2022-08-19T08:06:44;20.10;99.90
12481;DHT22;6305;48.398;11.762;2022-08-19T08:09:31;20.00;99.90
12481;DHT22;6305;48.398;11.762;2022-08-19T08:12:02;19.80;99.90
12481;DHT22;6305;48.398;11.762;2022-08-19T08:14:35;19.70;99.90
12481;DHT22;6305;48.398;11.762;2022-08-19T08:17:03;19.70;99.90
12481;DHT22;6305;48.398;11.762;2022-08-19T08:19:31;19.80;99.90
12481;DHT22;6305;48.398;11.762;2022-08-19T08:21:59;19.80;99.90
12481;DHT22;6305;48.398;11.762;2022-08-19T08:24:28;19.90;99.90
12481;DHT22;6305;48.398;11.762;2022-08-19T08:26:58;20.00;99.90
12481;DHT22;6305;48.398;11.762;2022-08-19T08:29:25;20.10;99.90
12481;DHT22;6305;48.398;11.762;2022-08-19T08:31:52;20.30;99.90
12481;DHT22;6305;48.398;11.762;2022-08-19T08:34:20;20.50;99.90
12481;DHT22;6305;48.398;11.762;2022-08-19T08:36:47;20.80;99.90
12481;DHT22;6305;48.398;11.762;2022-08-19T08:39:15;20.90;99.90
12481;DHT22;6305;48.398;11.762;2022-08-19T08:41:48;21.10;99.90
12481;DHT22;6305;48.398;11.762;2022-08-19T08:44:22;21.20;99.90
12481;DHT22;6305;48.398;11.762;2022-08-19T08:46:51;21.30;99.90
12481;DHT22;6305;48.398;11.762;2022-08-19T08:49:28;21.50;99.90
12481;DHT22;6305;48.398;11.762;2022-08-19T08:52:00;21.50;99.90
12481;DHT22;6305;48.398;11.762;2022-08-19T08:54:33;21.30;99.90
12481;DHT22;6305;48.398;11.762;2022-08-19T08:57:00;21.00;99.90
12481;DHT22;6305;48.398;11.762;2022-08-19T08:59:31;20.80;99.90
12481;DHT22;6305;48.398;11.762;2022-08-19T09:02:00;20.50;99.90
12481;DHT22;6305;48.398;11.762;2022-08-19T09:04:27;20.40;99.90
12481;DHT22;6305;48.398;11.762;2022-08-19T09:07:02;20.30;99.90
12481;DHT22;6305;48.398;11.762;2022-08-19T09:09:35;20.20;99.90
12481;DHT22;6305;48.398;11.762;2022-08-19T09:12:10;20.10;99.90
12481;DHT22;6305;48.398;11.762;2022-08-19T09:14:45;20.00;99.90
12481;DHT22;6305;48.398;11.762;2022-08-19T09:17:14;20.00;99.90
12481;DHT22;6305;48.398;11.762;2022-08-19T09:19:49;19.90;99.90
12481;DHT22;6305;48.398;11.762;2022-08-19T09:22:17;19.90;99.90
12481;DHT22;6305;48.398;11.762;2022-08-19T09:24:47;19.90;99.90
12481;DHT22;6305;48.398;11.762;2022-08-19T09:27:14;19.90;99.90
12481;DHT22;6305;48.398;11.762;2022-08-19T09:29:42;19.80;99.90
12481;DHT22;6305;48.398;11.762;2022-08-19T09:32:08;19.70;99.90
12481;DHT22;6305;48.398;11.762;2022-08-19T09:34:35;19.70;99.90
12481;DHT22;6305;48.398;11.762;2022-08-19T09:37:02;19.60;99.90
12481;DHT22;6305;48.398;11.762;2022-08-19T09:39:30;19.60;99.90
12481;DHT22;6305;48.398;11.762;2022-08-19T09:41:57;19.60;99.90
12481;DHT22;6305;48.398;11.762;2022-08-19T09:44:24;19.50;99.90
12481;DHT22;6305;48.398;11.762;2022-08-19T09:46:52;19.40;99.90
12481;DHT22;6305;48.398;11.762;2022-08-19T09:49:19;19.30;99.90
12481;DHT22;6305;48.398;11.762;2022-08-19T09:51:49;19.20;99.90
12481;DHT22;6305;48.398;11.762;2022-08-19T09:54:16;19.20;99.90
12481;DHT22;6305;48.398;11.762;2022-08-19T09:56:42;19.20;99.90
12481;DHT22;6305;48.398;11.762;2022-08-19T09:59:09;19.20;99.90
12481;DHT22;6305;48.398;11.762;2022-08-19T10:01:38;19.30;99.90
12481;DHT22;6305;48.398;11.762;2022-08-19T10:04:06;19.50;99.90
12481;DHT22;6305;48.398;11.762;2022-08-19T10:06:36;19.60;99.90
12481;DHT22;6305;48.398;11.762;2022-08-19T10:09:03;19.70;99.90
12481;DHT22;6305;48.398;11.762;2022-08-19T10:11:32;19.70;99.90
12481;DHT22;6305;48.398;11.762;2022-08-19T10:14:00;19.70;99.90
12481;DHT22;6305;48.398;11.762;2022-08-19T10:16:26;19.80;99.90
12481;DHT22;6305;48.398;11.762;2022-08-19T10:18:54;20.00;99.90
12481;DHT22;6305;48.398;11.762;2022-08-19T10:21:25;20.10;99.90
12481;DHT22;6305;48.398;11.762;2022-08-19T10:23:54;20.20;99.90
12481;DHT22;6305;48.398;11.762;2022-08-19T10:26:23;20.30;99.90
12481;DHT22;6305;48.398;11.762;2022-08-19T10:28:50;20.30;99.90
12481;DHT22;6305;48.398;11.762;2022-08-19T10:31:19;20.20;99.90
12481;DHT22;6305;48.398;11.762;2022-08-19T10:33:47;20.20;99.90
12481;DHT22;6305;48.398;11.762;2022-08-19T10:36:16;20.30;99.90
12481;DHT22;6305;48.398;11.762;2022-08-19T10:38:46;20.40;99.90
12481;DHT22;6305;48.398;11.762;2022-08-19T10:41:16;20.50;99.90
12481;DHT22;6305;48.398;11.762;2022-08-19T10:43:43;20.80;99.90
12481;DHT22;6305;48.398;11.762;2022-08-19T10:46:14;20.90;99.90
12481;DHT22;6305;48.398;11.762;2022-08-19T10:48:42;21.30;99.90
12481;DHT22;6305;48.398;11.762;2022-08-19T10:51:10;21.80;99.90
12481;DHT22;6305;48.398;11.762;2022-08-19T10:53:57;22.80;99.90
12481;DHT22;6305;48.398;11.762;2022-08-19T10:56:23;25.70;99.90
12481;DHT22;6305;48.398;11.762;2022-08-19T10:59:08;28.40;99.90
12481;DHT22;6305;48.398;11.762;2022-08-19T11:01:35;30.20;99.90
12481;DHT22;6305;48.398;11.762;2022-08-19T11:04:04;29.80;99.90
12481;DHT22;6305;48.398;11.762;2022-08-19T11:06:33;28.10;99.90
12481;DHT22;6305;48.398;11.762;2022-08-19T11:09:02;26.60;99.90
12481;DHT22;6305;48.398;11.762;2022-08-19T11:11:30;25.30;99.90
12481;DHT22;6305;48.398;11.762;2022-08-19T11:13:58;24.40;99.90
12481;DHT22;6305;48.398;11.762;2022-08-19T11:16:26;24.10;99.90
12481;DHT22;6305;48.398;11.762;2022-08-19T11:18:58;24.50;99.90
12481;DHT22;6305;48.398;11.762;2022-08-19T11:21:26;25.60;99.90
12481;DHT22;6305;48.398;11.762;2022-08-19T11:23:56;27.40;99.90
12481;DHT22;6305;48.398;11.762;2022-08-19T11:26:25;29.20;99.90
12481;DHT22;6305;48.398;11.762;2022-08-19T11:28:52;30.10;99.90
12481;DHT22;6305;48.398;11.762;2022-08-19T11:31:22;31.60;99.90
12481;DHT22;6305;48.398;11.762;2022-08-19T11:33:49;33.60;97.50
12481;DHT22;6305;48.398;11.762;2022-08-19T11:36:18;33.70;92.50
12481;DHT22;6305;48.398;11.762;2022-08-19T11:38:46;33.40;90.50
12481;DHT22;6305;48.398;11.762;2022-08-19T11:41:14;33.20;90.50
12481;DHT22;6305;48.398;11.762;2022-08-19T11:43:43;33.30;89.70
12481;DHT22;6305;48.398;11.762;2022-08-19T11:46:12;32.80;87.70
12481;DHT22;6305;48.398;11.762;2022-08-19T11:48:40;31.90;84.70
12481;DHT22;6305;48.398;11.762;2022-08-19T11:51:11;30.70;88.60
12481;DHT22;6305;48.398;11.762;2022-08-19T11:53:39;29.50;91.90
12481;DHT22;6305;48.398;11.762;2022-08-19T11:56:07;28.50;95.60
12481;DHT22;6305;48.398;11.762;2022-08-19T11:58:35;28.30;98.90
12481;DHT22;6305;48.398;11.762;2022-08-19T12:01:06;28.80;99.90
12481;DHT22;6305;48.398;11.762;2022-08-19T12:03:33;29.70;98.90
12481;DHT22;6305;48.398;11.762;2022-08-19T12:06:04;30.30;94.80
12481;DHT22;6305;48.398;11.762;2022-08-19T12:08:30;30.50;93.50
12481;DHT22;6305;48.398;11.762;2022-08-19T12:10:57;30.20;91.90
12481;DHT22;6305;48.398;11.762;2022-08-19T12:13:26;29.80;95.00
12481;DHT22;6305;48.398;11.762;2022-08-19T12:15:53;29.70;93.70
12481;DHT22;6305;48.398;11.762;2022-08-19T12:18:22;28.90;95.50
12481;DHT22;6305;48.398;11.762;2022-08-19T12:20:51;28.30;97.70
12481;DHT22;6305;48.398;11.762;2022-08-19T12:23:18;27.90;98.70
12481;DHT22;6305;48.398;11.762;2022-08-19T12:25:47;27.50;99.70
12481;DHT22;6305;48.398;11.762;2022-08-19T12:28:17;27.00;99.90
12481;DHT22;6305;48.398;11.762;2022-08-19T12:30:44;26.40;99.90
12481;DHT22;6305;48.398;11.762;2022-08-19T12:33:10;25.80;99.90
12481;DHT22;6305;48.398;11.762;2022-08-19T12:35:41;25.20;99.90
12481;DHT22;6305;48.398;11.762;2022-08-19T12:38:09;24.60;99.90
12481;DHT22;6305;48.398;11.762;2022-08-19T12:40:36;24.40;99.90
12481;DHT22;6305;48.398;11.762;2022-08-19T12:43:05;24.80;99.90
12481;DHT22;6305;48.398;11.762;2022-08-19T12:45:32;25.70;99.90
12481;DHT22;6305;48.398;11.762;2022-08-19T12:47:58;27.30;99.90
12481;DHT22;6305;48.398;11.762;2022-08-19T12:50:25;28.60;99.90
12481;DHT22;6305;48.398;11.762;2022-08-19T12:52:54;29.40;98.10
12481;DHT22;6305;48.398;11.762;2022-08-19T12:55:20;30.20;95.30
12481;DHT22;6305;48.398;11.762;2022-08-19T12:57:47;29.80;93.40
12481;DHT22;6305;48.398;11.762;2022-08-19T13:00:16;29.10;94.90
12481;DHT22;6305;48.398;11.762;2022-08-19T13:02:45;28.40;96.50
12481;DHT22;6305;48.398;11.762;2022-08-19T13:05:13;27.70;98.20
12481;DHT22;6305;48.398;11.762;2022-08-19T13:07:41;27.30;99.90
12481;DHT22;6305;48.398;11.762;2022-08-19T13:10:13;26.70;99.90
12481;DHT22;6305;48.398;11.762;2022-08-19T13:12:41;26.00;99.90
12481;DHT22;6305;48.398;11.762;2022-08-19T13:15:08;25.20;99.90
12481;DHT22;6305;48.398;11.762;2022-08-19T13:17:36;24.60;99.90
12481;DHT22;6305;48.398;11.762;2022-08-19T13:20:04;24.30;99.90
12481;DHT22;6305;48.398;11.762;2022-08-19T13:22:32;24.10;99.90
12481;DHT22;6305;48.398;11.762;2022-08-19T13:25:01;24.00;99.90
12481;DHT22;6305;48.398;11.762;2022-08-19T13:27:29;24.10;99.90
12481;DHT22;6305;48.398;11.762;2022-08-19T13:29:55;24.20;99.90
12481;DHT22;6305;48.398;11.762;2022-08-19T13:32:39;24.20;99.90
12481;DHT22;6305;48.398;11.762;2022-08-19T13:35:24;24.10;99.90
12481;DHT22;6305;48.398;11.762;2022-08-19T13:37:51;24.10;99.90
12481;DHT22;6305;48.398;11.762;2022-08-19T13:40:19;24.20;99.90
12481;DHT22;6305;48.398;11.762;2022-08-19T13:42:51;24.30;99.90
12481;DHT22;6305;48.398;11.762;2022-08-19T13:45:20;24.10;99.90
12481;DHT22;6305;48.398;11.762;2022-08-19T13:47:48;23.90;99.90
12481;DHT22;6305;48.398;11.762;2022-08-19T13:50:17;23.70;99.90
12481;DHT22;6305;48.398;11.762;2022-08-19T13:52:45;23.50;99.90
12481;DHT22;6305;48.398;11.762;2022-08-19T13:55:13;23.40;99.90
12481;DHT22;6305;48.398;11.762;2022-08-19T13:57:40;23.50;99.90
12481;DHT22;6305;48.398;11.762;2022-08-19T14:00:13;23.30;99.90
12481;DHT22;6305;48.398;11.762;2022-08-19T14:02:40;23.20;99.90
12481;DHT22;6305;48.398;11.762;2022-08-19T14:05:10;23.10;99.90
12481;DHT22;6305;48.398;11.762;2022-08-19T14:07:37;23.20;99.90
12481;DHT22;6305;48.398;11.762;2022-08-19T14:10:06;23.60;99.90
12481;DHT22;6305;48.398;11.762;2022-08-19T14:12:33;24.10;99.90
12481;DHT22;6305;48.398;11.762;2022-08-19T14:15:00;24.40;99.90
12481;DHT22;6305;48.398;11.762;2022-08-19T14:17:29;24.90;99.90
12481;DHT22;6305;48.398;11.762;2022-08-19T14:19:56;25.70;99.90
12481;DHT22;6305;48.398;11.762;2022-08-19T14:22:23;26.20;99.90
12481;DHT22;6305;48.398;11.762;2022-08-19T14:24:50;26.60;99.90
12481;DHT22;6305;48.398;11.762;2022-08-19T14:27:17;26.70;99.90
12481;DHT22;6305;48.398;11.762;2022-08-19T14:29:43;26.50;99.90
12481;DHT22;6305;48.398;11.762;2022-08-19T14:32:11;26.00;99.90
12481;DHT22;6305;48.398;11.762;2022-08-19T14:34:39;25.50;99.90
12481;DHT22;6305;48.398;11.762;2022-08-19T14:37:06;25.40;99.90
12481;DHT22;6305;48.398;11.762;2022-08-19T14:39:33;25.30;99.90
12481;DHT22;6305;48.398;11.762;2022-08-19T14:42:00;25.10;99.90
12481;DHT22;6305;48.398;11.762;2022-08-19T14:44:27;24.90;99.90
12481;DHT22;6305;48.398;11.762;2022-08-19T14:46:54;24.80;99.90
12481;DHT22;6305;48.398;11.762;2022-08-19T14:49:20;24.70;99.90
12481;DHT22;6305;48.398;11.762;2022-08-19T14:51:48;24.80;99.90
12481;DHT22;6305;48.398;11.762;2022-08-19T14:54:15;25.00;99.90
12481;DHT22;6305;48.398;11.762;2022-08-19T14:56:42;25.40;99.90
12481;DHT22;6305;48.398;11.762;2022-08-19T14:59:09;26.00;99.90
12481;DHT22;6305;48.398;11.762;2022-08-19T15:01:36;26.10;99.90
12481;DHT22;6305;48.398;11.762;2022-08-19T15:04:03;26.00;99.90
12481;DHT22;6305;48.398;11.762;2022-08-19T15:06:30;25.60;99.90
12481;DHT22;6305;48.398;11.762;2022-08-19T15:08:58;25.60;99.90
12481;DHT22;6305;48.398;11.762;2022-08-19T15:11:27;25.40;99.90
12481;DHT22;6305;48.398;11.762;2022-08-19T15:13:54;24.70;99.90
12481;DHT22;6305;48.398;11.762;2022-08-19T15:16:22;24.10;99.90
12481;DHT22;6305;48.398;11.762;2022-08-19T15:18:51;23.70;99.90
12481;DHT22;6305;48.398;11.762;2022-08-19T15:21:19;23.40;99.90
12481;DHT22;6305;48.398;11.762;2022-08-19T15:23:47;23.00;99.90
12481;DHT22;6305;48.398;11.762;2022-08-19T15:26:16;22.70;99.90
12481;DHT22;6305;48.398;11.762;2022-08-19T15:28:44;22.50;99.90
12481;DHT22;6305;48.398;11.762;2022-08-19T15:31:12;22.50;99.90
12481;DHT22;6305;48.398;11.762;2022-08-19T15:33:39;22.40;99.90
12481;DHT22;6305;48.398;11.762;2022-08-19T15:36:07;22.20;99.90
12481;DHT22;6305;48.398;11.762;2022-08-19T15:38:38;22.10;99.90